createdAt,value
2023-01-21T00:00:07.173Z,111.50
2023-01-21T00:02:34.729Z,110.10
2023-01-21T00:05:01.610Z,115.50
2023-01-21T00:07:28.384Z,116.70
2023-01-21T00:09:55.134Z,105.70
2023-01-21T00:12:22.261Z,100.70
2023-01-21T00:14:49.104Z,105.30
2023-01-21T00:17:15.903Z,107.10
2023-01-21T00:19:42.641Z,99.30
2023-01-21T00:22:09.537Z,90.80
2023-01-21T00:24:36.377Z,97.00
2023-01-21T00:27:03.141Z,100.90
2023-01-21T00:29:29.960Z,106.10
2023-01-21T00:31:56.728Z,115.70
2023-01-21T00:34:23.544Z,112.30
2023-01-21T00:36:50.383Z,120.20
2023-01-21T00:39:17.141Z,108.50
2023-01-21T00:41:43.981Z,96.20
2023-01-21T00:44:10.832Z,112.40
2023-01-21T00:46:37.681Z,100.20
2023-01-21T00:49:04.623Z,103.80
2023-01-21T00:51:31.458Z,111.70
2023-01-21T00:53:58.282Z,99.10
2023-01-21T00:56:25.054Z,112.60
2023-01-21T00:58:51.970Z,112.50
2023-01-21T01:01:20.384Z,107.00
2023-01-21T01:03:47.924Z,110.80
2023-01-21T01:06:22.529Z,91.70
2023-01-21T01:08:50.426Z,110.40
2023-01-21T01:11:17.440Z,87.20
2023-01-21T01:13:44.526Z,104.20
2023-01-21T01:16:12.951Z,103.90
2023-01-21T01:18:40.358Z,111.80
2023-01-21T01:21:10.623Z,109.30
2023-01-21T01:23:37.486Z,97.30
2023-01-21T01:26:05.795Z,116.70
2023-01-21T01:28:32.800Z,104.40
2023-01-21T01:30:59.961Z,102.10
2023-01-21T01:33:27.334Z,113.00
2023-01-21T01:35:54.175Z,103.80
2023-01-21T01:38:21.859Z,108.80
2023-01-21T01:40:49.741Z,99.90
2023-01-21T01:43:21.151Z,100.90
2023-01-21T01:45:48.133Z,104.80
2023-01-21T01:48:18.628Z,101.30
2023-01-21T01:50:45.518Z,101.40
2023-01-21T01:53:12.263Z,101.30
2023-01-21T01:55:39.087Z,98.70
2023-01-21T01:58:08.151Z,94.10
2023-01-21T02:00:35.193Z,91.90
2023-01-21T02:03:20.775Z,84.90
2023-01-21T02:05:47.588Z,95.80
2023-01-21T02:08:14.379Z,93.30
2023-01-21T02:10:41.150Z,93.50
2023-01-21T02:13:07.921Z,89.40
2023-01-21T02:15:45.959Z,88.00
2023-01-21T02:18:16.673Z,87.70
2023-01-21T02:21:03.466Z,86.40
2023-01-21T02:24:08.863Z,79.20
2023-01-21T02:26:44.566Z,82.90
2023-01-21T02:29:31.824Z,92.30
2023-01-21T02:32:09.619Z,81.70
2023-01-21T02:34:45.625Z,83.60
2023-01-21T02:37:15.130Z,78.70
2023-01-21T02:39:49.174Z,87.60
2023-01-21T02:42:42.872Z,83.10
2023-01-21T02:45:15.672Z,86.10
2023-01-21T02:47:55.901Z,66.60
2023-01-21T02:50:27.284Z,84.70
2023-01-21T02:52:55.753Z,93.40
2023-01-21T02:55:22.611Z,80.20
2023-01-21T02:57:50.940Z,87.90
2023-01-21T03:00:31.878Z,88.40
2023-01-21T03:03:23.010Z,84.60
2023-01-21T03:08:42.195Z,82.80
2023-01-21T03:11:17.041Z,78.80
2023-01-21T03:14:17.309Z,76.10
2023-01-21T03:16:59.930Z,73.80
2023-01-21T03:19:42.753Z,79.00
2023-01-21T03:22:16.114Z,82.00
2023-01-21T03:24:44.012Z,82.30
2023-01-21T03:27:12.136Z,79.10
2023-01-21T03:29:39.183Z,70.80
2023-01-21T03:32:06.423Z,73.10
2023-01-21T03:34:34.626Z,77.80
2023-01-21T03:37:05.031Z,74.60
2023-01-21T03:40:01.139Z,63.20
2023-01-21T03:42:27.999Z,65.30
2023-01-21T03:44:55.004Z,72.90
2023-01-21T03:47:29.589Z,76.40
2023-01-21T03:50:00.950Z,69.90
2023-01-21T03:52:27.866Z,76.40
2023-01-21T03:54:54.673Z,73.90
2023-01-21T03:57:21.440Z,69.50
2023-01-21T03:59:48.600Z,62.10
2023-01-21T04:02:20.368Z,68.70
2023-01-21T04:04:47.546Z,66.70
2023-01-21T04:07:15.288Z,65.30
2023-01-21T04:09:42.241Z,64.60
2023-01-21T04:12:09.231Z,64.60
2023-01-21T04:14:36.037Z,70.10
2023-01-21T04:17:02.850Z,71.90
2023-01-21T04:19:29.669Z,69.10
2023-01-21T04:21:56.496Z,68.10
2023-01-21T04:24:23.277Z,74.80
2023-01-21T04:26:50.021Z,59.40
2023-01-21T04:29:17.513Z,67.80
2023-01-21T04:31:44.572Z,65.60
2023-01-21T04:34:11.374Z,71.70
2023-01-21T04:36:38.134Z,64.90
2023-01-21T04:39:05.154Z,68.50
2023-01-21T04:41:31.991Z,68.60
2023-01-21T04:43:58.835Z,67.30
2023-01-21T04:46:25.617Z,66.50
2023-01-21T04:48:55.355Z,65.00
2023-01-21T04:51:22.174Z,65.70
2023-01-21T04:53:49.024Z,66.50
2023-01-21T04:56:15.795Z,65.80
2023-01-21T04:58:42.510Z,58.70
2023-01-21T05:01:09.247Z,70.60
2023-01-21T05:03:36.081Z,61.00
2023-01-21T05:06:02.939Z,65.40
2023-01-21T05:08:30.538Z,64.10
2023-01-21T05:10:57.383Z,69.20
2023-01-21T05:13:24.353Z,66.90
2023-01-21T05:15:51.395Z,54.60
2023-01-21T05:18:18.218Z,62.60
2023-01-21T05:20:44.937Z,57.40
2023-01-21T05:23:11.804Z,56.90
2023-01-21T05:25:38.571Z,71.90
2023-01-21T05:28:05.390Z,65.70
2023-01-21T05:30:32.126Z,62.70
2023-01-21T05:32:58.973Z,60.20
2023-01-21T05:35:25.818Z,64.10
2023-01-21T05:37:52.577Z,65.70
2023-01-21T05:40:19.708Z,57.30
2023-01-21T05:42:47.169Z,61.80
2023-01-21T05:45:14.208Z,71.00
2023-01-21T05:47:41.149Z,64.20
2023-01-21T05:50:09.272Z,56.60
2023-01-21T05:52:36.081Z,61.00
2023-01-21T05:55:03.257Z,69.60
2023-01-21T05:57:30.743Z,64.00
2023-01-21T05:59:57.892Z,64.00
2023-01-21T06:02:25.004Z,58.30
2023-01-21T06:04:51.911Z,59.50
2023-01-21T06:07:18.688Z,52.40
2023-01-21T06:09:45.450Z,55.90
2023-01-21T06:12:12.239Z,57.90
2023-01-21T06:14:39.121Z,60.60
2023-01-21T06:17:05.962Z,60.80
2023-01-21T06:19:32.775Z,58.10
2023-01-21T06:21:59.612Z,58.80
2023-01-21T06:24:26.421Z,62.20
2023-01-21T06:26:53.619Z,64.80
2023-01-21T06:29:20.370Z,52.90
2023-01-21T06:31:47.301Z,59.40
2023-01-21T06:34:14.251Z,59.40
2023-01-21T06:36:42.798Z,61.40
2023-01-21T06:39:10.946Z,55.10
2023-01-21T06:41:38.029Z,59.00
2023-01-21T06:44:05.063Z,62.10
2023-01-21T06:46:32.065Z,63.50
2023-01-21T06:48:59.078Z,68.00
2023-01-21T06:51:25.889Z,57.50
2023-01-21T06:53:52.796Z,57.90
2023-01-21T06:56:19.814Z,67.90
2023-01-21T06:58:46.642Z,58.50
2023-01-21T07:01:13.444Z,51.20
2023-01-21T07:03:40.276Z,62.10
2023-01-21T07:06:07.141Z,58.30
2023-01-21T07:08:34.268Z,60.10
2023-01-21T07:24:21.831Z,58.50
2023-01-21T07:26:48.623Z,58.40
2023-01-21T07:29:15.419Z,60.20
2023-01-21T07:31:42.223Z,57.60
2023-01-21T07:34:10.071Z,53.10
2023-01-21T07:36:36.856Z,60.60
2023-01-21T07:39:03.615Z,56.00
2023-01-21T07:41:30.395Z,58.40
2023-01-21T07:43:57.165Z,47.00
2023-01-21T07:46:24.165Z,60.70
2023-01-21T07:48:51.945Z,66.70
2023-01-21T07:51:19.552Z,51.50
2023-01-21T07:53:46.510Z,47.40
2023-01-21T07:56:13.366Z,58.40
2023-01-21T07:58:40.197Z,55.90
2023-01-21T08:01:10.354Z,51.20
2023-01-21T08:03:37.686Z,50.10
2023-01-21T08:06:07.466Z,57.80
2023-01-21T08:08:34.412Z,55.70
2023-01-21T08:11:01.197Z,59.90
2023-01-21T08:13:28.114Z,61.00
2023-01-21T08:15:56.186Z,56.70
2023-01-21T08:18:23.379Z,58.30
2023-01-21T08:20:58.073Z,56.70
2023-01-21T08:23:26.050Z,52.60
2023-01-21T08:25:53.083Z,56.50
2023-01-21T08:28:19.942Z,68.40
2023-01-21T08:30:46.761Z,53.20
2023-01-21T08:33:13.925Z,52.50
2023-01-21T08:35:40.681Z,58.50
2023-01-21T08:38:07.523Z,63.40
2023-01-21T08:40:34.565Z,59.90
2023-01-21T08:43:02.662Z,60.20
2023-01-21T08:45:29.688Z,58.90
2023-01-21T08:47:57.106Z,53.20
2023-01-21T08:50:24.082Z,54.60
2023-01-21T08:52:52.274Z,64.40
2023-01-21T08:55:19.404Z,59.10
2023-01-21T08:57:46.232Z,60.60
2023-01-21T09:00:14.432Z,57.10
2023-01-21T09:02:41.228Z,64.30
2023-01-21T09:05:08.499Z,69.40
2023-01-21T09:07:35.319Z,59.40
2023-01-21T09:10:05.987Z,62.90
2023-01-21T09:12:32.963Z,56.90
2023-01-21T09:14:59.999Z,56.80
2023-01-21T09:17:27.052Z,71.10
2023-01-21T09:19:55.471Z,56.20
2023-01-21T09:22:22.443Z,50.10
2023-01-21T09:24:49.227Z,53.40
2023-01-21T09:27:16.142Z,59.20
2023-01-21T09:29:43.073Z,61.20
2023-01-21T09:32:10.026Z,55.00
2023-01-21T09:34:36.819Z,60.10
2023-01-21T09:37:05.172Z,67.10
2023-01-21T09:39:31.922Z,58.90
2023-01-21T09:41:58.752Z,70.30
2023-01-21T09:44:35.181Z,71.80
2023-01-21T09:47:26.411Z,61.20
2023-01-21T09:49:59.153Z,69.50
2023-01-21T14:11:35.375Z,54.60
2023-01-21T14:14:17.592Z,66.70
2023-01-21T14:16:50.707Z,58.90
2023-01-21T14:19:42.034Z,61.10
2023-01-21T14:22:36.933Z,61.40
2023-01-21T14:25:46.593Z,62.50
2023-01-21T14:28:16.662Z,61.10
2023-01-21T14:30:46.456Z,58.30
2023-01-21T14:33:17.358Z,72.90
2023-01-21T14:36:10.052Z,61.70
2023-01-21T14:38:56.166Z,69.00
2023-01-21T14:41:22.946Z,63.30
2023-01-21T14:43:51.724Z,53.20
2023-01-21T14:46:34.022Z,74.90
2023-01-21T14:49:08.377Z,73.40
2023-01-21T14:51:42.882Z,73.90
2023-01-21T14:54:15.988Z,60.20
2023-01-21T14:56:56.873Z,69.70
2023-01-21T14:59:37.967Z,66.60
2023-01-21T15:02:28.641Z,76.30
2023-01-21T15:05:00.219Z,72.50
2023-01-21T15:07:34.335Z,61.00
2023-01-21T15:10:03.068Z,76.10
2023-01-21T15:12:31.401Z,62.80
2023-01-21T15:15:03.258Z,56.10
2023-01-21T15:18:09.323Z,48.00
2023-01-21T15:20:42.268Z,48.60
2023-01-21T15:23:27.227Z,56.10
2023-01-21T15:26:11.255Z,54.40
2023-01-21T15:28:40.001Z,55.70
2023-01-21T15:31:09.114Z,50.80
2023-01-21T15:33:38.539Z,54.00
2023-01-21T15:36:05.635Z,46.20
2023-01-21T15:38:32.384Z,53.00
2023-01-21T15:41:06.812Z,44.60
2023-01-21T15:44:06.021Z,53.90
2023-01-21T15:46:46.585Z,69.90
2023-01-21T15:49:31.854Z,56.50
2023-01-21T15:52:21.428Z,288.10
2023-01-21T15:55:06.085Z,134.10
2023-01-21T15:57:32.829Z,217.10
2023-01-21T16:00:27.734Z,71.90
2023-01-21T16:03:03.018Z,73.90
2023-01-21T16:06:07.468Z,51.00
2023-01-21T16:08:55.805Z,161.40
2023-01-21T16:11:30.098Z,57.50
2023-01-21T16:14:13.840Z,62.60
2023-01-21T16:17:03.393Z,72.30
2023-01-21T16:19:32.912Z,54.70
2023-01-21T16:22:01.318Z,67.20
2023-01-21T16:24:29.183Z,63.50
2023-01-21T16:26:56.171Z,46.20
2023-01-21T16:29:22.975Z,50.10
2023-01-21T16:31:50.803Z,63.40
2023-01-21T16:34:39.562Z,54.70
2023-01-21T16:37:06.797Z,55.00
2023-01-21T16:39:33.635Z,59.40
2023-01-21T16:42:02.247Z,55.00
2023-01-21T16:44:29.259Z,55.60
2023-01-21T16:46:56.232Z,60.00
2023-01-21T16:49:23.050Z,63.80
2023-01-21T16:51:56.478Z,57.10
2023-01-21T16:54:24.843Z,55.00
2023-01-21T16:56:55.162Z,47.70
2023-01-21T16:59:25.453Z,53.50
2023-01-21T17:01:52.289Z,52.40
2023-01-21T17:04:19.194Z,58.50
2023-01-21T17:06:46.067Z,56.60
2023-01-21T17:09:25.804Z,50.10
2023-01-21T17:11:52.695Z,61.60
2023-01-21T17:14:25.307Z,52.10
2023-01-21T17:16:52.154Z,47.20
2023-01-21T17:19:24.209Z,55.90
2023-01-21T17:21:55.462Z,52.40
2023-01-21T17:24:33.277Z,59.20
2023-01-21T17:27:10.389Z,60.40
2023-01-21T17:29:37.310Z,51.50
2023-01-21T17:32:05.749Z,53.90
2023-01-21T17:34:34.157Z,48.20
2023-01-21T17:37:01.008Z,60.00
2023-01-21T17:39:46.455Z,52.80
2023-01-21T17:42:23.930Z,59.70
2023-01-21T17:44:53.362Z,50.30
2023-01-21T17:47:32.353Z,54.90
2023-01-21T17:50:03.091Z,50.90
2023-01-21T17:52:30.040Z,56.90
2023-01-21T17:55:25.988Z,48.70
2023-01-21T21:41:52.574Z,102.20
2023-01-21T21:44:19.324Z,89.10
2023-01-21T21:47:04.547Z,100.60
2023-01-21T21:49:32.707Z,89.70
2023-01-21T21:52:00.506Z,99.10
2023-01-21T21:54:27.560Z,108.40
2023-01-21T21:56:54.226Z,96.80
2023-01-21T21:59:20.925Z,109.50
2023-01-21T22:01:50.995Z,101.20
2023-01-21T22:04:17.954Z,92.30
2023-01-21T22:06:44.498Z,117.90
2023-01-21T22:09:11.349Z,120.30
2023-01-21T22:11:37.996Z,112.80
2023-01-21T22:14:04.938Z,106.30
2023-01-21T22:16:31.917Z,120.30
2023-01-21T22:18:59.531Z,105.90
2023-01-21T22:21:28.218Z,103.20
2023-01-21T22:23:56.056Z,94.30
2023-01-21T22:26:23.823Z,103.80
2023-01-21T22:28:53.358Z,107.10
2023-01-21T22:31:24.862Z,112.10
2023-01-21T22:33:51.719Z,118.80
2023-01-21T22:36:19.896Z,112.00
2023-01-21T22:38:46.595Z,118.40
2023-01-21T22:41:14.166Z,105.70
2023-01-21T22:43:43.997Z,159.50
2023-01-21T22:46:12.301Z,123.60
2023-01-21T22:48:39.043Z,148.20
2023-01-21T22:51:05.863Z,113.70
2023-01-21T22:53:32.650Z,112.80
2023-01-21T22:56:00.967Z,134.70
2023-01-21T22:58:28.515Z,96.60
2023-01-21T23:00:55.451Z,106.80
2023-01-21T23:03:22.316Z,78.90
2023-01-21T23:05:49.248Z,97.40
2023-01-21T23:08:16.246Z,142.50
2023-01-21T23:10:43.425Z,116.10
2023-01-21T23:13:11.153Z,92.10
2023-01-21T23:15:45.627Z,85.70
2023-01-21T23:18:13.211Z,101.00
2023-01-21T23:20:41.395Z,105.70
2023-01-21T23:23:09.393Z,97.80
2023-01-21T23:25:45.698Z,120.50
2023-01-21T23:28:13.257Z,106.80
2023-01-21T23:30:40.257Z,105.60
2023-01-21T23:33:06.926Z,119.10
2023-01-21T23:35:34.808Z,93.70
2023-01-21T23:38:01.918Z,95.00
2023-01-21T23:40:28.991Z,119.50
2023-01-21T23:42:55.578Z,129.00
2023-01-21T23:45:22.504Z,98.00
2023-01-21T23:47:49.337Z,90.10
2023-01-21T23:50:16.308Z,83.10
2023-01-21T23:52:43.243Z,165.40
2023-01-21T23:55:09.934Z,107.20
2023-01-21T23:57:36.929Z,112.30
